createdAt,value
2022-11-08T00:01:33.219Z,98813.00
2022-11-08T00:04:21.838Z,98815.00
2022-11-08T00:07:30.618Z,98806.00
2022-11-08T00:10:37.006Z,98818.00
2022-11-08T00:13:42.876Z,98807.00
2022-11-08T00:16:30.355Z,98806.00
2022-11-08T00:19:17.842Z,98813.00
2022-11-08T00:22:05.333Z,98809.00
2022-11-08T00:24:52.787Z,98812.00
2022-11-08T00:27:40.287Z,98816.00
2022-11-08T00:30:27.727Z,98817.00
2022-11-08T00:33:15.187Z,98818.00
2022-11-08T00:36:04.542Z,98811.00
2022-11-08T00:38:51.977Z,98815.00
2022-11-08T00:41:40.072Z,98816.00
2022-11-08T00:44:28.007Z,98819.00
2022-11-08T00:47:15.719Z,98812.00
2022-11-08T00:50:03.278Z,98805.00
2022-11-08T00:52:50.703Z,98816.00
2022-11-08T00:55:38.772Z,98811.00
2022-11-08T00:58:28.590Z,98812.00
2022-11-08T01:01:21.088Z,98808.00
2022-11-08T01:04:11.741Z,98805.00
2022-11-08T01:06:59.348Z,98799.00
2022-11-08T01:09:46.933Z,98799.00
2022-11-08T01:12:34.427Z,98799.00
2022-11-08T01:15:22.019Z,98794.00
2022-11-08T01:18:11.977Z,98793.00
2022-11-08T01:20:59.472Z,98784.00
2022-11-08T01:23:47.622Z,98786.00
2022-11-08T01:26:35.141Z,98794.00
2022-11-08T01:29:22.628Z,98796.00
2022-11-08T01:32:10.137Z,98795.00
2022-11-08T01:34:57.572Z,98791.00
2022-11-08T01:37:44.992Z,98791.00
2022-11-08T01:40:34.293Z,98787.00
2022-11-08T01:43:30.821Z,98785.00
2022-11-08T01:46:45.975Z,98773.00
2022-11-08T01:49:43.893Z,98767.00
2022-11-08T01:52:43.671Z,98769.00
2022-11-08T01:55:36.948Z,98757.00
2022-11-08T01:58:30.273Z,98754.00
2022-11-08T02:01:17.780Z,98763.00
2022-11-08T02:04:06.292Z,98759.00
2022-11-08T02:06:54.756Z,98758.00
2022-11-08T02:09:46.634Z,98758.00
2022-11-08T02:12:34.167Z,98755.00
2022-11-08T02:15:25.313Z,98747.00
2022-11-08T02:18:15.272Z,98746.00
2022-11-08T02:21:28.111Z,98732.00
2022-11-08T02:24:17.436Z,98723.00
2022-11-08T02:27:05.707Z,98724.00
2022-11-08T02:29:55.958Z,98718.00
2022-11-08T02:32:43.953Z,98711.00
2022-11-08T02:35:31.391Z,98706.00
2022-11-08T02:38:20.095Z,98705.00
2022-11-08T02:41:08.812Z,98709.00
2022-11-08T02:43:57.953Z,98708.00
2022-11-08T02:46:45.466Z,98705.00
2022-11-08T02:49:32.957Z,98710.00
2022-11-08T02:52:20.486Z,98706.00
2022-11-08T02:55:08.252Z,98696.00
2022-11-08T02:57:56.922Z,98700.00
2022-11-08T03:00:44.376Z,98698.00
2022-11-08T03:03:31.895Z,98689.00
2022-11-08T03:06:19.393Z,98692.00
2022-11-08T03:09:07.338Z,98688.00
2022-11-08T03:11:54.737Z,98688.00
2022-11-08T03:14:42.260Z,98677.00
2022-11-08T03:17:29.652Z,98669.00
2022-11-08T03:20:18.356Z,98664.00
2022-11-08T03:23:07.121Z,98658.00
2022-11-08T03:25:55.090Z,98651.00
2022-11-08T03:28:42.640Z,98653.00
2022-11-08T03:31:30.147Z,98657.00
2022-11-08T03:34:17.662Z,98657.00
2022-11-08T03:37:07.011Z,98656.00
2022-11-08T03:39:54.550Z,98667.00
2022-11-08T03:42:42.001Z,98669.00
2022-11-08T03:45:29.531Z,98672.00
2022-11-08T03:48:17.466Z,98673.00
2022-11-08T03:51:05.261Z,98661.00
2022-11-08T03:53:52.826Z,98663.00
2022-11-08T03:56:40.468Z,98661.00
2022-11-08T03:59:27.915Z,98664.00
2022-11-08T04:02:15.496Z,98668.00
2022-11-08T04:05:03.149Z,98669.00
2022-11-08T04:07:50.595Z,98686.00
2022-11-08T04:10:38.516Z,98677.00
2022-11-08T04:13:44.700Z,98681.00
2022-11-08T04:16:33.471Z,98686.00
2022-11-08T04:19:40.356Z,98680.00
2022-11-08T04:22:27.791Z,98682.00
2022-11-08T04:25:15.441Z,98669.00
2022-11-08T04:28:02.910Z,98671.00
2022-11-08T04:30:59.401Z,98661.00
2022-11-08T04:33:47.190Z,98666.00
2022-11-08T04:36:34.956Z,98666.00
2022-11-08T04:39:22.436Z,98655.00
2022-11-08T04:42:09.865Z,98659.00
2022-11-08T04:44:57.330Z,98652.00
2022-11-08T04:47:48.783Z,98648.00
2022-11-08T04:50:36.712Z,98646.00
2022-11-08T04:53:24.236Z,98646.00
2022-11-08T04:56:16.175Z,98649.00
2022-11-08T04:59:07.157Z,98658.00
2022-11-08T05:01:57.183Z,98642.00
2022-11-08T05:04:44.691Z,98644.00
2022-11-08T05:07:33.323Z,98645.00
2022-11-08T05:10:20.840Z,98646.00
2022-11-08T05:13:08.271Z,98646.00
2022-11-08T05:16:01.180Z,98647.00
2022-11-08T05:18:49.631Z,98644.00
2022-11-08T05:21:55.897Z,98640.00
2022-11-08T05:24:43.315Z,98645.00
2022-11-08T05:27:30.821Z,98632.00
2022-11-08T05:30:18.293Z,98638.00
2022-11-08T05:33:05.771Z,98633.00
2022-11-08T05:35:53.626Z,98638.00
2022-11-08T05:38:42.636Z,98638.00
2022-11-08T05:41:30.496Z,98642.00
2022-11-08T05:44:17.966Z,98640.00
2022-11-08T05:47:05.626Z,98636.00
2022-11-08T05:49:53.082Z,98656.00
2022-11-08T05:52:40.898Z,98661.00
2022-11-08T05:55:28.596Z,98652.00
2022-11-08T05:58:16.989Z,98663.00
2022-11-08T06:01:15.449Z,98665.00
2022-11-08T06:04:03.171Z,98664.00
2022-11-08T06:06:51.179Z,98653.00
2022-11-08T06:09:40.218Z,98661.00
2022-11-08T06:12:27.908Z,98661.00
2022-11-08T06:15:15.336Z,98673.00
2022-11-08T06:18:05.135Z,98665.00
2022-11-08T06:20:52.545Z,98660.00
2022-11-08T06:23:40.761Z,98661.00
2022-11-08T06:26:28.306Z,98667.00
2022-11-08T06:29:15.835Z,98667.00
2022-11-08T06:32:03.411Z,98673.00
2022-11-08T06:34:50.918Z,98674.00
2022-11-08T06:37:38.348Z,98670.00
2022-11-08T06:40:25.727Z,98681.00
2022-11-08T06:43:19.290Z,98689.00
2022-11-08T06:46:07.517Z,98680.00
2022-11-08T06:48:55.024Z,98682.00
2022-11-08T06:51:42.476Z,98680.00
2022-11-08T06:54:30.076Z,98677.00
2022-11-08T06:57:17.536Z,98674.00
2022-11-08T07:00:07.707Z,98678.00
2022-11-08T07:03:01.545Z,98669.00
2022-11-08T07:05:49.221Z,98671.00
2022-11-08T07:08:36.824Z,98673.00
2022-11-08T07:11:24.694Z,98676.00
2022-11-08T07:14:12.212Z,98676.00
2022-11-08T07:16:59.651Z,98677.00
2022-11-08T07:19:47.026Z,98683.00
2022-11-08T07:22:35.252Z,98676.00
2022-11-08T07:25:23.306Z,98685.00
2022-11-08T07:28:17.784Z,98687.00
2022-11-08T07:31:05.775Z,98686.00
2022-11-08T07:33:53.261Z,98681.00
2022-11-08T07:36:40.727Z,98679.00
2022-11-08T07:39:28.342Z,98683.00
2022-11-08T07:42:15.772Z,98680.00
2022-11-08T07:45:04.526Z,98676.00
2022-11-08T07:48:11.175Z,98677.00
2022-11-08T07:50:59.538Z,98678.00
2022-11-08T07:53:47.072Z,98673.00
2022-11-08T07:56:34.506Z,98676.00
2022-11-08T07:59:21.952Z,98686.00
2022-11-08T08:02:13.600Z,98686.00
2022-11-08T08:05:01.066Z,98692.00
2022-11-08T08:07:48.497Z,98687.00
2022-11-08T08:10:37.193Z,98694.00
2022-11-08T08:13:24.701Z,98689.00
2022-11-08T08:16:12.172Z,98694.00
2022-11-08T08:18:59.596Z,98690.00
2022-11-08T08:21:47.042Z,98684.00
2022-11-08T08:24:34.562Z,98687.00
2022-11-08T08:27:22.043Z,98687.00
2022-11-08T08:30:09.886Z,98685.00
2022-11-08T08:33:28.884Z,98688.00
2022-11-08T08:36:17.009Z,98688.00
2022-11-08T08:39:04.594Z,98684.00
2022-11-08T08:41:52.007Z,98684.00
2022-11-08T08:44:39.427Z,98681.00
2022-11-08T08:47:27.188Z,98682.00
2022-11-08T08:50:14.641Z,98687.00
2022-11-08T08:53:06.642Z,98685.00
2022-11-08T08:55:54.092Z,98673.00
2022-11-08T08:58:42.306Z,98675.00
2022-11-08T09:04:24.247Z,98664.00
2022-11-08T09:07:11.782Z,98666.00
2022-11-08T09:09:59.256Z,98663.00
2022-11-08T09:12:46.690Z,98668.00
2022-11-08T09:15:34.506Z,98663.00
2022-11-08T09:18:22.796Z,98666.00
2022-11-08T09:21:10.295Z,98671.00
2022-11-08T09:23:57.786Z,98663.00
2022-11-08T09:26:45.336Z,98661.00
2022-11-08T09:29:33.817Z,98664.00
2022-11-08T09:32:33.411Z,98658.00
2022-11-08T09:35:30.108Z,98657.00
2022-11-08T09:38:17.955Z,98649.00
2022-11-08T09:41:25.080Z,98653.00
2022-11-08T09:44:50.989Z,98657.00
2022-11-08T09:47:43.028Z,98657.00
2022-11-08T09:50:45.147Z,98663.00
2022-11-08T09:53:54.317Z,98661.00
2022-11-08T09:56:42.327Z,98663.00
2022-11-08T09:59:41.251Z,98659.00
2022-11-08T10:02:29.032Z,98656.00
2022-11-08T10:05:19.606Z,98645.00
2022-11-08T10:08:34.146Z,98644.00
2022-11-08T10:11:29.384Z,98635.00
2022-11-08T10:14:56.333Z,98626.00
2022-11-08T10:17:52.523Z,98610.00
2022-11-08T10:20:58.568Z,98607.00
2022-11-08T10:24:09.659Z,98605.00
2022-11-08T10:27:00.714Z,98605.00
2022-11-08T10:29:56.877Z,98612.00
2022-11-08T10:32:44.626Z,98612.00
2022-11-08T10:35:47.106Z,98619.00
2022-11-08T10:38:50.343Z,98600.00
2022-11-08T10:41:59.773Z,98601.00
2022-11-08T10:44:47.886Z,98602.00
2022-11-08T10:47:37.309Z,98599.00
2022-11-08T10:50:46.517Z,98602.00
2022-11-08T10:53:35.095Z,98593.00
2022-11-08T10:56:25.132Z,98581.00
2022-11-08T10:59:33.407Z,98579.00
2022-11-08T11:02:31.833Z,98587.00
2022-11-08T11:05:23.956Z,98580.00
2022-11-08T11:08:11.591Z,98575.00
2022-11-08T11:11:35.045Z,98573.00
2022-11-08T11:14:22.951Z,98565.00
2022-11-08T11:17:18.698Z,98565.00
2022-11-08T11:20:22.418Z,98559.00
2022-11-08T11:23:11.933Z,98553.00
2022-11-08T11:25:59.509Z,98540.00
2022-11-08T11:29:14.417Z,98544.00
2022-11-08T11:32:34.731Z,98543.00
2022-11-08T11:35:31.398Z,98539.00
2022-11-08T11:38:37.706Z,98542.00
2022-11-08T11:41:37.498Z,98538.00
2022-11-08T11:44:40.880Z,98540.00
2022-11-08T11:47:39.512Z,98526.00
2022-11-08T11:50:41.946Z,98521.00
2022-11-08T11:53:33.666Z,98519.00
2022-11-08T11:57:28.232Z,98523.00
2022-11-08T12:00:17.532Z,98522.00
2022-11-08T12:03:38.032Z,98511.00
2022-11-08T12:06:53.331Z,98513.00
2022-11-08T12:10:26.770Z,98505.00
2022-11-08T12:14:19.287Z,98501.00
2022-11-08T12:17:31.351Z,98500.00
2022-11-08T12:20:34.844Z,98497.00
2022-11-08T12:23:53.374Z,98498.00
2022-11-08T12:27:11.620Z,98483.00
2022-11-08T12:29:59.064Z,98482.00
2022-11-08T12:33:15.590Z,98484.00
2022-11-08T12:36:27.045Z,98478.00
2022-11-08T12:39:28.708Z,98478.00
2022-11-08T12:42:34.837Z,98478.00
2022-11-08T12:45:49.848Z,98465.00
2022-11-08T12:49:06.473Z,98459.00
2022-11-08T12:52:49.998Z,98457.00
2022-11-08T12:55:42.166Z,98465.00
2022-11-08T12:58:48.010Z,98460.00
2022-11-08T13:01:37.718Z,98462.00
2022-11-08T13:04:33.140Z,98455.00
2022-11-08T13:07:32.375Z,98449.00
2022-11-08T13:11:10.737Z,98446.00
2022-11-08T13:14:00.588Z,98441.00
2022-11-08T13:17:17.064Z,98430.00
2022-11-08T13:20:27.505Z,98424.00
2022-11-08T13:23:31.744Z,98433.00
2022-11-08T13:26:26.665Z,98434.00
2022-11-08T13:29:15.055Z,98433.00
2022-11-08T13:32:52.720Z,98438.00
2022-11-08T13:36:04.372Z,98438.00
2022-11-08T13:39:00.570Z,98442.00
2022-11-08T13:42:20.465Z,98453.00
2022-11-08T13:45:32.379Z,98445.00
2022-11-08T13:48:26.298Z,98442.00
2022-11-08T13:51:38.735Z,98434.00
2022-11-08T13:54:31.931Z,98440.00
2022-11-08T13:57:41.175Z,98441.00
2022-11-08T14:00:55.622Z,98443.00
2022-11-08T14:03:43.146Z,98438.00
2022-11-08T14:07:24.962Z,98435.00
2022-11-08T14:10:25.911Z,98442.00
2022-11-08T14:13:57.405Z,98445.00
2022-11-08T14:17:35.407Z,98438.00
2022-11-08T14:20:41.518Z,98432.00
2022-11-08T14:23:39.389Z,98442.00
2022-11-08T14:26:27.786Z,98441.00
2022-11-08T14:29:23.056Z,98435.00
2022-11-08T14:32:19.301Z,98435.00
2022-11-08T14:35:25.894Z,98447.00
2022-11-08T14:38:15.518Z,98441.00
2022-11-08T14:41:07.280Z,98436.00
2022-11-08T14:43:58.896Z,98438.00
2022-11-08T14:46:47.866Z,98442.00
2022-11-08T14:49:38.004Z,98440.00
2022-11-08T14:52:32.231Z,98440.00
2022-11-08T14:55:25.045Z,98442.00
2022-11-08T14:58:18.031Z,98441.00
2022-11-08T15:01:09.586Z,98447.00
2022-11-08T15:04:05.820Z,98440.00
2022-11-08T15:06:59.393Z,98437.00
2022-11-08T15:09:48.706Z,98453.00
2022-11-08T15:12:42.855Z,98454.00
2022-11-08T15:15:34.151Z,98448.00
2022-11-08T15:18:31.132Z,98455.00
2022-11-08T15:21:31.386Z,98454.00
2022-11-08T15:24:34.448Z,98452.00
2022-11-08T15:27:24.887Z,98462.00
2022-11-08T15:30:30.713Z,98472.00
2022-11-08T15:33:28.828Z,98473.00
2022-11-08T15:36:24.091Z,98474.00
2022-11-08T15:39:51.233Z,98468.00
2022-11-08T15:42:45.976Z,98463.00
2022-11-08T15:45:35.775Z,98466.00
2022-11-08T15:48:27.758Z,98460.00
2022-11-08T15:51:16.024Z,98470.00
2022-11-08T15:54:03.412Z,98468.00
2022-11-08T15:56:54.797Z,98465.00
2022-11-08T15:59:42.347Z,98463.00
2022-11-08T16:02:29.771Z,98466.00
2022-11-08T16:05:27.218Z,98462.00
2022-11-08T16:08:19.962Z,98454.00
2022-11-08T16:11:19.891Z,98447.00
2022-11-08T16:14:16.364Z,98462.00
2022-11-08T16:17:03.871Z,98463.00
2022-11-08T16:19:51.537Z,98460.00
2022-11-08T16:22:38.992Z,98474.00
2022-11-08T16:25:29.651Z,98481.00
2022-11-08T16:28:35.223Z,98480.00
2022-11-08T16:31:22.997Z,98475.00
2022-11-08T16:34:12.037Z,98474.00
2022-11-08T16:36:59.567Z,98476.00
2022-11-08T16:39:47.426Z,98482.00
2022-11-08T16:42:34.826Z,98495.00
2022-11-08T16:45:43.367Z,98504.00
2022-11-08T16:48:30.312Z,98513.00
2022-11-08T16:51:20.827Z,98503.00
2022-11-08T16:54:19.691Z,98518.00
2022-11-08T16:57:33.191Z,98511.00
2022-11-08T17:00:20.267Z,98524.00
2022-11-08T17:03:11.772Z,98526.00
2022-11-08T17:06:00.461Z,98518.00
2022-11-08T17:08:48.555Z,98525.00
2022-11-08T17:11:38.618Z,98522.00
2022-11-08T17:14:26.001Z,98528.00
2022-11-08T17:17:15.153Z,98531.00
2022-11-08T17:20:02.751Z,98542.00
2022-11-08T17:22:51.146Z,98543.00
2022-11-08T17:25:43.026Z,98545.00
2022-11-08T17:28:30.572Z,98541.00
2022-11-08T17:31:19.387Z,98549.00
2022-11-08T17:34:06.851Z,98546.00
2022-11-08T17:36:54.421Z,98549.00
2022-11-08T17:39:45.058Z,98547.00
2022-11-08T17:42:35.641Z,98552.00
2022-11-08T17:45:25.733Z,98563.00
2022-11-08T17:48:16.226Z,98567.00
2022-11-08T17:51:03.987Z,98559.00
2022-11-08T17:53:51.475Z,98564.00
2022-11-08T17:56:39.499Z,98562.00
2022-11-08T17:59:27.087Z,98566.00
2022-11-08T18:02:15.557Z,98565.00
2022-11-08T18:05:03.237Z,98571.00
2022-11-08T18:07:51.281Z,98565.00
2022-11-08T18:10:38.892Z,98565.00
2022-11-08T18:13:27.956Z,98563.00
2022-11-08T18:16:23.767Z,98556.00
2022-11-08T18:19:11.648Z,98561.00
2022-11-08T18:22:00.585Z,98567.00
2022-11-08T18:24:50.126Z,98565.00
2022-11-08T18:27:38.853Z,98551.00
2022-11-08T18:30:26.657Z,98568.00
2022-11-08T18:33:14.513Z,98558.00
2022-11-08T18:36:11.753Z,98559.00
2022-11-08T18:39:01.279Z,98567.00
2022-11-08T18:41:48.958Z,98564.00
2022-11-08T18:44:36.496Z,98563.00
2022-11-08T18:47:24.021Z,98561.00
2022-11-08T18:50:11.936Z,98570.00
2022-11-08T18:53:03.289Z,98580.00
2022-11-08T18:55:52.264Z,98579.00
2022-11-08T18:58:40.318Z,98585.00
2022-11-08T19:01:28.066Z,98577.00
2022-11-08T19:04:15.916Z,98593.00
2022-11-08T19:07:03.890Z,98597.00
2022-11-08T19:09:51.661Z,98600.00
2022-11-08T19:12:39.087Z,98605.00
2022-11-08T19:15:27.333Z,98610.00
2022-11-08T19:18:14.733Z,98617.00
2022-11-08T19:21:06.759Z,98605.00
2022-11-08T19:23:59.424Z,98603.00
2022-11-08T19:26:47.381Z,98599.00
2022-11-08T19:29:34.793Z,98599.00
2022-11-08T19:32:23.320Z,98599.00
2022-11-08T19:35:10.768Z,98601.00
2022-11-08T19:38:00.080Z,98597.00
2022-11-08T19:40:48.623Z,98593.00
2022-11-08T19:43:37.976Z,98597.00
2022-11-08T19:46:30.196Z,98600.00
2022-11-08T19:49:17.776Z,98598.00
2022-11-08T19:52:05.367Z,98603.00
2022-11-08T19:54:52.782Z,98597.00
2022-11-08T19:57:40.596Z,98597.00
2022-11-08T20:00:28.388Z,98591.00
2022-11-08T20:03:16.022Z,98593.00
2022-11-08T20:06:04.087Z,98594.00
2022-11-08T20:08:54.104Z,98596.00
2022-11-08T20:11:42.687Z,98601.00
2022-11-08T20:14:30.161Z,98598.00
2022-11-08T20:17:18.353Z,98600.00
2022-11-08T20:20:06.437Z,98603.00
2022-11-08T20:22:53.877Z,98608.00
2022-11-08T20:25:41.301Z,98612.00
2022-11-08T20:28:29.366Z,98614.00
2022-11-08T20:31:22.806Z,98610.00
2022-11-08T20:34:13.058Z,98603.00
2022-11-08T20:37:00.633Z,98614.00
2022-11-08T20:39:48.086Z,98612.00
2022-11-08T20:42:35.547Z,98617.00
2022-11-08T20:45:23.017Z,98620.00
2022-11-08T20:48:14.758Z,98612.00
2022-11-08T20:51:04.936Z,98606.00
2022-11-08T20:53:52.593Z,98605.00
2022-11-08T20:56:40.045Z,98612.00
2022-11-08T20:59:27.513Z,98621.00
2022-11-08T21:02:15.198Z,98613.00
2022-11-08T21:05:02.702Z,98619.00
2022-11-08T21:10:58.940Z,98609.00
2022-11-08T21:13:47.277Z,98611.00
2022-11-08T21:16:59.480Z,98610.00
2022-11-08T21:19:43.541Z,98617.00
2022-11-08T21:22:30.942Z,98612.00
2022-11-08T21:25:18.384Z,98616.00
2022-11-08T21:28:05.931Z,98618.00
2022-11-08T21:30:53.836Z,98611.00
2022-11-08T21:33:41.842Z,98613.00
2022-11-08T21:36:29.442Z,98616.00
2022-11-08T21:39:16.891Z,98607.00
2022-11-08T21:42:04.361Z,98606.00
2022-11-08T21:44:51.797Z,98603.00
2022-11-08T21:47:39.271Z,98600.00
2022-11-08T21:50:26.926Z,98608.00
2022-11-08T21:53:14.365Z,98604.00
2022-11-08T21:56:01.936Z,98605.00
2022-11-08T21:58:49.465Z,98594.00
2022-11-08T22:01:37.101Z,98604.00
2022-11-08T22:04:24.578Z,98600.00
2022-11-08T22:07:12.113Z,98597.00
2022-11-08T22:09:59.860Z,98601.00
2022-11-08T22:12:47.340Z,98597.00
2022-11-08T22:15:34.757Z,98593.00
2022-11-08T22:18:37.042Z,98593.00
2022-11-08T22:21:39.469Z,98591.00
2022-11-08T22:24:27.336Z,98596.00
2022-11-08T22:27:14.800Z,98588.00
2022-11-08T22:30:02.528Z,98591.00
2022-11-08T22:32:49.959Z,98593.00
2022-11-08T22:35:37.366Z,98601.00
2022-11-08T22:38:25.927Z,98599.00
2022-11-08T22:41:20.336Z,98604.00
2022-11-08T22:44:11.777Z,98602.00
2022-11-08T22:47:00.186Z,98593.00
2022-11-08T22:49:47.645Z,98598.00
2022-11-08T22:52:35.063Z,98599.00
2022-11-08T22:55:22.590Z,98601.00
2022-11-08T22:58:09.981Z,98603.00
2022-11-08T23:01:01.838Z,98609.00
2022-11-08T23:03:49.571Z,98609.00
2022-11-08T23:06:39.085Z,98614.00
2022-11-08T23:09:26.606Z,98598.00
2022-11-08T23:12:32.740Z,98596.00
2022-11-08T23:15:38.757Z,98594.00
2022-11-08T23:18:28.017Z,98590.00
2022-11-08T23:21:51.006Z,98589.00
2022-11-08T23:24:38.651Z,98583.00
2022-11-08T23:27:45.856Z,98586.00
2022-11-08T23:30:52.174Z,98593.00
2022-11-08T23:33:48.712Z,98596.00
2022-11-08T23:36:36.182Z,98601.00
2022-11-08T23:39:23.612Z,98587.00
2022-11-08T23:42:29.886Z,98595.00
2022-11-08T23:45:18.512Z,98589.00
2022-11-08T23:48:06.099Z,98591.00
2022-11-08T23:50:55.837Z,98593.00
2022-11-08T23:53:44.055Z,98586.00
2022-11-08T23:56:31.597Z,98588.00
2022-11-08T23:59:19.013Z,98590.00
